createdAt,value
2023-05-01T00:00:56.977Z,92617.00
2023-05-01T00:01:56.867Z,92615.00
2023-05-01T00:02:56.876Z,92615.00
2023-05-01T00:03:56.919Z,92613.00
2023-05-01T00:04:56.741Z,92611.00
2023-05-01T00:05:56.570Z,92615.00
2023-05-01T00:06:56.490Z,92611.00
2023-05-01T00:07:56.410Z,92613.00
2023-05-01T00:08:56.331Z,92611.00
2023-05-01T00:09:56.502Z,92611.00
2023-05-01T00:10:56.262Z,92611.00
2023-05-01T00:11:56.308Z,92611.00
2023-05-01T00:12:56.171Z,92609.00
2023-05-01T00:13:56.135Z,92609.00
2023-05-01T00:14:56.203Z,92607.00
2023-05-01T00:15:56.423Z,92607.00
2023-05-01T00:16:56.590Z,92605.00
2023-05-01T00:17:56.709Z,92603.00
2023-05-01T00:18:56.779Z,92601.00
2023-05-01T00:19:57.234Z,92603.00
2023-05-01T00:20:56.820Z,92603.00
2023-05-01T00:21:56.764Z,92605.00
2023-05-01T00:22:56.712Z,92605.00
2023-05-01T00:23:56.739Z,92605.00
2023-05-01T00:24:56.691Z,92605.00
2023-05-01T00:25:56.944Z,92607.00
2023-05-01T00:26:57.118Z,92607.00
2023-05-01T00:27:57.249Z,92607.00
2023-05-01T00:28:57.415Z,92607.00
2023-05-01T00:29:57.888Z,92605.00
2023-05-01T00:30:57.501Z,92605.00
2023-05-01T00:31:57.531Z,92607.00
2023-05-01T00:32:57.400Z,92607.00
2023-05-01T00:33:57.418Z,92605.00
2023-05-01T00:34:57.368Z,92605.00
2023-05-01T00:35:57.629Z,92605.00
2023-05-01T00:36:57.719Z,92601.00
2023-05-01T00:37:57.872Z,92601.00
2023-05-01T00:38:58.097Z,92601.00
2023-05-01T00:39:58.586Z,92597.00
2023-05-01T00:40:58.282Z,92597.00
2023-05-01T00:41:58.132Z,92597.00
2023-05-01T00:42:58.071Z,92597.00
2023-05-01T00:43:57.993Z,92593.00
2023-05-01T00:44:58.072Z,92599.00
2023-05-01T00:45:58.353Z,92597.00
2023-05-01T00:46:58.606Z,92595.00
2023-05-01T00:47:58.912Z,92593.00
2023-05-01T00:48:58.921Z,92593.00
2023-05-01T00:49:59.186Z,92593.00
2023-05-01T00:50:59.346Z,92591.00
2023-05-01T00:51:59.555Z,92593.00
2023-05-01T00:52:59.802Z,92591.00
2023-05-01T00:53:59.959Z,92591.00
2023-05-01T00:55:00.218Z,92590.00
2023-05-01T00:56:00.360Z,92590.00
2023-05-01T00:57:00.562Z,92590.00
2023-05-01T00:58:00.754Z,92588.00
2023-05-01T00:59:00.941Z,92586.00
2023-05-01T01:00:01.148Z,92584.00
2023-05-01T01:01:01.370Z,92576.00
2023-05-01T01:02:01.453Z,92576.00
2023-05-01T01:03:01.829Z,92576.00
2023-05-01T01:04:01.835Z,92576.00
2023-05-01T01:05:01.963Z,92574.00
2023-05-01T01:06:02.251Z,92574.00
2023-05-01T01:07:02.403Z,92572.00
2023-05-01T01:08:02.576Z,92574.00
2023-05-01T01:09:02.787Z,92572.00
2023-05-01T01:10:03.021Z,92572.00
2023-05-01T01:11:03.207Z,92570.00
2023-05-01T01:12:03.398Z,92572.00
2023-05-01T01:13:03.603Z,92572.00
2023-05-01T01:14:03.899Z,92570.00
2023-05-01T01:15:03.849Z,92568.00
2023-05-01T01:16:04.121Z,92568.00
2023-05-01T01:17:04.384Z,92566.00
2023-05-01T01:18:04.413Z,92564.00
2023-05-01T01:19:04.558Z,92564.00
2023-05-01T01:20:04.776Z,92564.00
2023-05-01T01:21:04.948Z,92564.00
2023-05-01T01:22:05.120Z,92564.00
2023-05-01T01:23:05.278Z,92564.00
2023-05-01T01:24:05.437Z,92566.00
2023-05-01T01:25:05.629Z,92566.00
2023-05-01T01:26:05.836Z,92564.00
2023-05-01T01:27:05.900Z,92564.00
2023-05-01T01:28:06.129Z,92562.00
2023-05-01T01:29:06.306Z,92562.00
2023-05-01T01:30:06.505Z,92558.00
2023-05-01T01:31:06.744Z,92560.00
2023-05-01T01:32:06.766Z,92560.00
2023-05-01T01:33:06.987Z,92558.00
2023-05-01T01:34:07.148Z,92560.00
2023-05-01T01:35:07.319Z,92560.00
2023-05-01T01:36:07.660Z,92556.00
2023-05-01T01:37:07.617Z,92560.00
2023-05-01T01:38:07.845Z,92558.00
2023-05-01T01:39:08.004Z,92552.00
2023-05-01T01:40:08.160Z,92554.00
2023-05-01T01:41:08.298Z,92554.00
2023-05-01T01:42:08.478Z,92556.00
2023-05-01T01:43:08.650Z,92552.00
2023-05-01T01:44:08.897Z,92550.00
2023-05-01T01:45:08.895Z,92550.00
2023-05-01T01:46:09.169Z,92550.00
2023-05-01T01:47:09.236Z,92546.00
2023-05-01T01:48:09.436Z,92545.00
2023-05-01T01:49:09.535Z,92546.00
2023-05-01T01:50:09.700Z,92546.00
2023-05-01T01:51:09.876Z,92545.00
2023-05-01T01:52:09.922Z,92545.00
2023-05-01T01:53:10.167Z,92545.00
2023-05-01T01:54:10.368Z,92545.00
2023-05-01T01:55:10.496Z,92545.00
2023-05-01T01:56:10.576Z,92545.00
2023-05-01T01:57:10.777Z,92543.00
2023-05-01T01:58:10.936Z,92541.00
2023-05-01T01:59:11.107Z,92541.00
2023-05-01T02:00:11.420Z,92541.00
2023-05-01T02:01:11.443Z,92539.00
2023-05-01T02:02:11.683Z,92539.00
2023-05-01T02:03:11.802Z,92537.00
2023-05-01T02:04:12.015Z,92537.00
2023-05-01T02:05:12.105Z,92537.00
2023-05-01T02:06:12.340Z,92535.00
2023-05-01T02:07:12.366Z,92533.00
2023-05-01T02:08:12.473Z,92533.00
2023-05-01T02:09:12.597Z,92533.00
2023-05-01T02:10:12.814Z,92529.00
2023-05-01T02:11:13.004Z,92529.00
2023-05-01T02:12:13.104Z,92529.00
2023-05-01T02:13:13.410Z,92527.00
2023-05-01T02:14:13.437Z,92527.00
2023-05-01T02:15:13.635Z,92529.00
2023-05-01T02:16:13.846Z,92529.00
2023-05-01T02:17:13.999Z,92531.00
2023-05-01T02:18:14.067Z,92527.00
2023-05-01T02:19:14.301Z,92525.00
2023-05-01T02:20:14.502Z,92527.00
2023-05-01T02:21:14.662Z,92527.00
2023-05-01T02:22:14.855Z,92527.00
2023-05-01T02:23:15.016Z,92525.00
2023-05-01T02:24:15.167Z,92523.00
2023-05-01T02:25:15.447Z,92527.00
2023-05-01T02:26:15.456Z,92525.00
2023-05-01T02:27:15.656Z,92527.00
2023-05-01T02:28:15.936Z,92525.00
2023-05-01T02:29:16.009Z,92525.00
2023-05-01T02:30:16.214Z,92527.00
2023-05-01T02:31:16.370Z,92527.00
2023-05-01T02:32:16.521Z,92523.00
2023-05-01T02:33:16.691Z,92523.00
2023-05-01T02:34:16.838Z,92523.00
2023-05-01T02:35:16.998Z,92523.00
2023-05-01T02:36:17.180Z,92523.00
2023-05-01T02:37:17.282Z,92523.00
2023-05-01T02:38:17.439Z,92521.00
2023-05-01T02:39:17.613Z,92521.00
2023-05-01T02:40:17.799Z,92519.00
2023-05-01T02:41:17.971Z,92521.00
2023-05-01T02:42:18.145Z,92517.00
2023-05-01T02:43:18.241Z,92519.00
2023-05-01T02:44:18.446Z,92519.00
2023-05-01T02:45:18.645Z,92515.00
2023-05-01T02:46:18.586Z,92517.00
2023-05-01T02:47:18.813Z,92515.00
2023-05-01T02:48:18.843Z,92515.00
2023-05-01T02:49:18.941Z,92519.00
2023-05-01T02:50:19.350Z,92515.00
2023-05-01T02:51:19.339Z,92517.00
2023-05-01T02:52:19.452Z,92513.00
2023-05-01T02:53:19.576Z,92515.00
2023-05-01T02:54:19.759Z,92513.00
2023-05-01T02:55:20.009Z,92513.00
2023-05-01T02:56:20.128Z,92511.00
2023-05-01T02:57:20.315Z,92513.00
2023-05-01T02:58:20.520Z,92511.00
2023-05-01T02:59:20.523Z,92509.00
2023-05-01T03:00:20.793Z,92511.00
2023-05-01T03:01:20.886Z,92511.00
2023-05-01T03:02:21.072Z,92509.00
2023-05-01T03:03:21.282Z,92511.00
2023-05-01T03:04:21.404Z,92509.00
2023-05-01T03:05:21.548Z,92505.00
2023-05-01T03:06:21.688Z,92507.00
2023-05-01T03:07:21.758Z,92505.00
2023-05-01T03:08:21.997Z,92505.00
2023-05-01T03:09:22.504Z,92505.00
2023-05-01T03:10:21.953Z,92501.00
2023-05-01T03:11:21.879Z,92505.00
2023-05-01T03:12:21.778Z,92505.00
2023-05-01T03:13:21.669Z,92505.00
2023-05-01T03:14:21.767Z,92505.00
2023-05-01T03:15:22.052Z,92503.00
2023-05-01T03:16:22.139Z,92507.00
2023-05-01T03:17:22.238Z,92503.00
2023-05-01T03:18:22.507Z,92505.00
2023-05-01T03:19:22.641Z,92503.00
2023-05-01T03:20:22.779Z,92505.00
2023-05-01T03:21:23.076Z,92505.00
2023-05-01T03:22:23.244Z,92505.00
2023-05-01T03:23:23.415Z,92501.00
2023-05-01T03:24:23.678Z,92499.00
2023-05-01T03:25:23.763Z,92501.00
2023-05-01T03:26:23.954Z,92501.00
2023-05-01T03:27:24.111Z,92499.00
2023-05-01T03:28:24.407Z,92496.00
2023-05-01T03:29:24.367Z,92496.00
2023-05-01T03:30:24.539Z,92498.00
2023-05-01T03:31:24.879Z,92498.00
2023-05-01T03:32:24.958Z,92496.00
2023-05-01T03:33:25.039Z,92498.00
2023-05-01T03:34:25.190Z,92498.00
2023-05-01T03:35:25.416Z,92496.00
2023-05-01T03:36:25.570Z,92496.00
2023-05-01T03:37:25.756Z,92494.00
2023-05-01T03:38:25.997Z,92496.00
2023-05-01T03:39:26.108Z,92496.00
2023-05-01T03:40:26.249Z,92496.00
2023-05-01T03:41:26.562Z,92498.00
2023-05-01T03:42:26.637Z,92496.00
2023-05-01T03:43:26.835Z,92492.00
2023-05-01T03:44:26.976Z,92496.00
2023-05-01T03:45:27.165Z,92496.00
2023-05-01T03:46:27.475Z,92496.00
2023-05-01T03:47:27.553Z,92496.00
2023-05-01T03:48:27.857Z,92492.00
2023-05-01T03:49:27.915Z,92494.00
2023-05-01T03:50:28.035Z,92492.00
2023-05-01T03:51:28.257Z,92492.00
2023-05-01T03:52:28.371Z,92492.00
2023-05-01T03:53:28.540Z,92494.00
2023-05-01T03:54:28.712Z,92492.00
2023-05-01T03:55:28.876Z,92492.00
2023-05-01T03:56:29.124Z,92494.00
2023-05-01T03:57:29.265Z,92494.00
2023-05-01T03:58:29.488Z,92492.00
2023-05-01T03:59:29.657Z,92494.00
2023-05-01T04:00:29.803Z,92494.00
2023-05-01T04:01:29.964Z,92494.00
2023-05-01T04:02:30.248Z,92494.00
2023-05-01T04:03:30.281Z,92496.00
2023-05-01T04:04:30.585Z,92494.00
2023-05-01T04:05:30.681Z,92492.00
2023-05-01T04:06:30.891Z,92494.00
2023-05-01T04:07:31.001Z,92496.00
2023-05-01T04:08:31.154Z,92490.00
2023-05-01T04:09:31.319Z,92492.00
2023-05-01T04:10:31.498Z,92492.00
2023-05-01T04:11:31.751Z,92492.00
2023-05-01T04:12:31.847Z,92490.00
2023-05-01T04:13:31.997Z,92492.00
2023-05-01T04:14:32.168Z,92494.00
2023-05-01T04:15:32.361Z,92494.00
2023-05-01T04:16:32.717Z,92494.00
2023-05-01T04:17:32.888Z,92496.00
2023-05-01T04:18:32.972Z,92492.00
2023-05-01T04:19:33.132Z,92496.00
2023-05-01T04:20:33.351Z,92490.00
2023-05-01T04:21:33.501Z,92496.00
2023-05-01T04:22:33.743Z,92494.00
2023-05-01T04:23:33.917Z,92496.00
2023-05-01T04:24:34.111Z,92494.00
2023-05-01T04:25:34.246Z,92492.00
2023-05-01T04:26:34.497Z,92494.00
2023-05-01T04:27:34.649Z,92494.00
2023-05-01T04:28:34.898Z,92494.00
2023-05-01T04:29:35.035Z,92494.00
2023-05-01T04:30:35.181Z,92496.00
2023-05-01T04:31:35.431Z,92492.00
2023-05-01T04:32:35.697Z,92490.00
2023-05-01T04:33:35.788Z,92496.00
2023-05-01T04:34:35.944Z,92494.00
2023-05-01T04:35:36.161Z,92498.00
2023-05-01T04:36:36.298Z,92492.00
2023-05-01T04:37:36.517Z,92492.00
2023-05-01T04:38:36.806Z,92494.00
2023-05-01T04:39:36.938Z,92496.00
2023-05-01T04:40:37.083Z,92496.00
2023-05-01T04:41:37.313Z,92499.00
2023-05-01T04:42:37.528Z,92498.00
2023-05-01T04:43:37.684Z,92498.00
2023-05-01T04:44:37.915Z,92499.00
2023-05-01T04:45:38.081Z,92498.00
2023-05-01T04:46:38.357Z,92503.00
2023-05-01T04:47:38.592Z,92503.00
2023-05-01T04:48:38.729Z,92501.00
2023-05-01T04:49:38.846Z,92501.00
2023-05-01T04:50:39.084Z,92503.00
2023-05-01T04:51:39.259Z,92507.00
2023-05-01T04:52:39.438Z,92501.00
2023-05-01T04:53:39.633Z,92507.00
2023-05-01T04:54:39.823Z,92507.00
2023-05-01T04:55:39.976Z,92507.00
2023-05-01T04:56:40.151Z,92505.00
2023-05-01T04:57:40.381Z,92509.00
2023-05-01T04:58:40.532Z,92505.00
2023-05-01T04:59:40.813Z,92509.00
2023-05-01T05:00:40.956Z,92507.00
2023-05-01T05:01:41.260Z,92507.00
2023-05-01T05:02:41.365Z,92505.00
2023-05-01T05:03:41.477Z,92511.00
2023-05-01T05:04:41.565Z,92509.00
2023-05-01T05:05:41.717Z,92509.00
2023-05-01T05:06:41.978Z,92511.00
2023-05-01T05:07:42.133Z,92511.00
2023-05-01T05:08:42.302Z,92515.00
2023-05-01T05:09:42.475Z,92511.00
2023-05-01T05:10:42.640Z,92511.00
2023-05-01T05:11:42.801Z,92509.00
2023-05-01T05:12:42.913Z,92511.00
2023-05-01T05:13:43.095Z,92511.00
2023-05-01T05:14:43.306Z,92511.00
2023-05-01T05:15:43.460Z,92513.00
2023-05-01T05:16:43.823Z,92515.00
2023-05-01T05:17:43.886Z,92513.00
2023-05-01T05:18:44.003Z,92517.00
2023-05-01T05:19:44.156Z,92515.00
2023-05-01T05:20:44.302Z,92513.00
2023-05-01T05:21:44.442Z,92513.00
2023-05-01T05:22:44.654Z,92511.00
2023-05-01T05:23:44.823Z,92515.00
2023-05-01T05:24:44.929Z,92515.00
2023-05-01T05:25:45.089Z,92511.00
2023-05-01T05:26:45.540Z,92511.00
2023-05-01T05:27:45.503Z,92513.00
2023-05-01T05:28:45.700Z,92513.00
2023-05-01T05:29:45.796Z,92511.00
2023-05-01T05:30:46.046Z,92511.00
2023-05-01T05:31:46.201Z,92509.00
2023-05-01T05:32:46.390Z,92509.00
2023-05-01T05:33:46.624Z,92513.00
2023-05-01T05:34:46.809Z,92511.00
2023-05-01T05:35:46.983Z,92509.00
2023-05-01T05:36:47.325Z,92511.00
2023-05-01T05:37:47.457Z,92513.00
2023-05-01T05:38:47.690Z,92515.00
2023-05-01T05:39:47.805Z,92517.00
2023-05-01T05:40:48.045Z,92515.00
2023-05-01T05:41:48.158Z,92515.00
2023-05-01T05:42:48.397Z,92517.00
2023-05-01T05:43:48.557Z,92515.00
2023-05-01T05:44:48.781Z,92517.00
2023-05-01T05:45:49.024Z,92515.00
2023-05-01T05:46:49.151Z,92515.00
2023-05-01T05:47:49.370Z,92513.00
2023-05-01T05:48:49.578Z,92513.00
2023-05-01T05:49:49.739Z,92511.00
2023-05-01T05:50:49.898Z,92509.00
2023-05-01T05:51:50.107Z,92511.00
2023-05-01T05:52:50.282Z,92513.00
2023-05-01T05:53:50.462Z,92513.00
2023-05-01T05:54:50.850Z,92511.00
2023-05-01T05:55:50.921Z,92509.00
2023-05-01T05:56:51.079Z,92511.00
2023-05-01T05:57:51.293Z,92511.00
2023-05-01T05:58:51.514Z,92509.00
2023-05-01T05:59:51.690Z,92511.00
2023-05-01T06:00:51.860Z,92509.00
2023-05-01T06:01:52.065Z,92507.00
2023-05-01T06:02:52.249Z,92507.00
2023-05-01T06:03:52.459Z,92503.00
2023-05-01T06:04:52.622Z,92505.00
2023-05-01T06:05:52.843Z,92505.00
2023-05-01T06:06:53.050Z,92503.00
2023-05-01T06:07:53.167Z,92503.00
2023-05-01T06:08:53.349Z,92503.00
2023-05-01T06:09:53.736Z,92503.00
2023-05-01T06:10:53.709Z,92503.00
2023-05-01T06:11:53.910Z,92501.00
2023-05-01T06:12:58.581Z,92503.00
2023-05-01T06:13:54.900Z,92501.00
2023-05-01T06:14:53.806Z,92505.00
2023-05-01T06:15:53.719Z,92503.00
2023-05-01T06:16:53.716Z,92503.00
2023-05-01T06:17:53.694Z,92501.00
2023-05-01T06:18:53.523Z,92503.00
2023-05-01T06:19:53.633Z,92499.00
2023-05-01T06:20:53.324Z,92501.00
2023-05-01T06:21:53.227Z,92501.00
2023-05-01T06:22:53.133Z,92499.00
2023-05-01T06:23:53.055Z,92499.00
2023-05-01T06:24:53.061Z,92503.00
2023-05-01T06:25:53.036Z,92503.00
2023-05-01T06:26:52.970Z,92503.00
2023-05-01T06:27:52.934Z,92501.00
2023-05-01T06:28:52.990Z,92501.00
2023-05-01T06:29:53.319Z,92499.00
2023-05-01T06:30:53.432Z,92498.00
2023-05-01T06:31:53.568Z,92498.00
2023-05-01T06:32:53.738Z,92498.00
2023-05-01T06:33:53.796Z,92499.00
2023-05-01T06:34:53.956Z,92498.00
2023-05-01T06:35:54.178Z,92498.00
2023-05-01T06:36:54.371Z,92498.00
2023-05-01T06:37:54.535Z,92496.00
2023-05-01T06:38:54.722Z,92496.00
2023-05-01T06:39:55.302Z,92496.00
2023-05-01T06:40:54.865Z,92498.00
2023-05-01T06:41:54.849Z,92498.00
2023-05-01T06:42:54.803Z,92499.00
2023-05-01T06:43:54.760Z,92496.00
2023-05-01T06:44:54.728Z,92498.00
2023-05-01T06:45:54.687Z,92498.00
2023-05-01T06:46:54.711Z,92496.00
2023-05-01T06:47:54.691Z,92494.00
2023-05-01T06:48:54.594Z,92498.00
2023-05-01T06:49:54.752Z,92494.00
2023-05-01T06:50:54.696Z,92494.00
2023-05-01T06:51:54.963Z,92498.00
2023-05-01T06:52:55.115Z,92496.00
2023-05-01T06:53:55.231Z,92496.00
2023-05-01T06:54:55.516Z,92494.00
2023-05-01T06:55:55.708Z,92494.00
2023-05-01T06:56:55.891Z,92496.00
2023-05-01T06:57:56.052Z,92492.00
2023-05-01T06:58:56.244Z,92496.00
2023-05-01T06:59:56.691Z,92494.00
2023-05-01T07:00:56.591Z,92494.00
2023-05-01T07:01:56.895Z,92494.00
2023-05-01T07:02:57.246Z,92498.00
2023-05-01T07:03:57.131Z,92498.00
2023-05-01T07:04:57.321Z,92498.00
2023-05-01T07:05:57.486Z,92496.00
2023-05-01T07:06:57.706Z,92496.00
2023-05-01T07:08:01.599Z,92496.00
2023-05-01T07:08:57.753Z,92492.00
2023-05-01T07:09:57.969Z,92496.00
2023-05-01T07:10:57.567Z,92494.00
2023-05-01T07:11:57.571Z,92496.00
2023-05-01T07:12:57.372Z,92496.00
2023-05-01T07:13:57.281Z,92496.00
2023-05-01T07:14:57.172Z,92498.00
2023-05-01T07:15:57.111Z,92498.00
2023-05-01T07:16:57.150Z,92498.00
2023-05-01T07:17:57.269Z,92496.00
2023-05-01T07:18:57.418Z,92496.00
2023-05-01T07:19:57.742Z,92490.00
2023-05-01T07:20:57.669Z,92494.00
2023-05-01T07:21:57.861Z,92494.00
2023-05-01T07:22:58.054Z,92490.00
2023-05-01T07:23:58.191Z,92490.00
2023-05-01T07:24:58.315Z,92488.00
2023-05-01T07:25:58.480Z,92486.00
2023-05-01T07:26:58.663Z,92486.00
2023-05-01T07:27:58.773Z,92486.00
2023-05-01T07:28:58.899Z,92480.00
2023-05-01T07:29:59.224Z,92484.00
2023-05-01T07:30:59.220Z,92482.00
2023-05-01T07:31:59.591Z,92482.00
2023-05-01T07:32:59.547Z,92484.00
2023-05-01T07:33:59.597Z,92482.00
2023-05-01T07:34:59.716Z,92482.00
2023-05-01T07:35:59.881Z,92484.00
2023-05-01T07:37:00.033Z,92482.00
2023-05-01T07:38:00.164Z,92482.00
2023-05-01T07:39:00.277Z,92484.00
2023-05-01T07:40:00.413Z,92484.00
2023-05-01T07:41:00.547Z,92486.00
2023-05-01T07:42:00.693Z,92482.00
2023-05-01T07:43:00.843Z,92486.00
2023-05-01T07:44:00.986Z,92486.00
2023-05-01T07:45:01.214Z,92488.00
2023-05-01T07:46:01.296Z,92488.00
2023-05-01T07:47:01.432Z,92486.00
2023-05-01T07:48:01.682Z,92484.00
2023-05-01T07:49:01.824Z,92486.00
2023-05-01T07:50:01.982Z,92486.00
2023-05-01T07:51:02.094Z,92484.00
2023-05-01T07:52:02.355Z,92484.00
2023-05-01T07:53:02.534Z,92482.00
2023-05-01T07:54:02.684Z,92480.00
2023-05-01T07:55:02.877Z,92480.00
2023-05-01T07:56:02.969Z,92480.00
2023-05-01T07:57:03.123Z,92484.00
2023-05-01T07:58:03.269Z,92482.00
2023-05-01T07:59:03.440Z,92482.00
2023-05-01T08:00:03.608Z,92486.00
2023-05-01T08:01:03.742Z,92484.00
2023-05-01T08:02:03.953Z,92484.00
2023-05-01T08:03:04.114Z,92484.00
2023-05-01T08:04:04.314Z,92486.00
2023-05-01T08:05:04.438Z,92486.00
2023-05-01T08:06:04.581Z,92484.00
2023-05-01T08:07:04.792Z,92482.00
2023-05-01T08:08:04.900Z,92482.00
2023-05-01T08:09:05.120Z,92482.00
2023-05-01T08:10:05.490Z,92484.00
2023-05-01T08:11:05.447Z,92480.00
2023-05-01T08:12:05.587Z,92480.00
2023-05-01T08:13:05.794Z,92478.00
2023-05-01T08:14:05.953Z,92482.00
2023-05-01T08:15:06.068Z,92480.00
2023-05-01T08:16:06.259Z,92482.00
2023-05-01T08:17:06.460Z,92482.00
2023-05-01T08:18:06.605Z,92482.00
2023-05-01T08:19:06.684Z,92482.00
2023-05-01T08:20:06.821Z,92482.00
2023-05-01T08:21:06.938Z,92480.00
2023-05-01T08:22:07.058Z,92480.00
2023-05-01T08:23:07.224Z,92480.00
2023-05-01T08:24:07.432Z,92480.00
2023-05-01T08:25:07.523Z,92480.00
2023-05-01T08:26:07.739Z,92478.00
2023-05-01T08:27:07.878Z,92480.00
2023-05-01T08:28:08.075Z,92478.00
2023-05-01T08:29:08.263Z,92478.00
2023-05-01T08:30:08.362Z,92474.00
2023-05-01T08:31:08.562Z,92474.00
2023-05-01T08:32:09.386Z,92478.00
2023-05-01T08:33:08.288Z,92476.00
2023-05-01T08:34:08.131Z,92476.00
2023-05-01T08:35:08.057Z,92476.00
2023-05-01T08:36:07.949Z,92474.00
2023-05-01T08:37:07.797Z,92474.00
2023-05-01T08:38:07.676Z,92472.00
2023-05-01T08:39:07.553Z,92472.00
2023-05-01T08:40:07.430Z,92472.00
2023-05-01T08:41:07.315Z,92472.00
2023-05-01T08:42:07.183Z,92470.00
2023-05-01T08:43:07.205Z,92466.00
2023-05-01T08:44:07.075Z,92468.00
2023-05-01T08:45:06.930Z,92468.00
2023-05-01T08:46:06.842Z,92468.00
2023-05-01T08:47:06.779Z,92466.00
2023-05-01T08:48:06.672Z,92466.00
2023-05-01T08:49:06.473Z,92464.00
2023-05-01T08:50:06.349Z,92464.00
2023-05-01T08:51:07.236Z,92464.00
2023-05-01T08:52:06.106Z,92468.00
2023-05-01T08:53:05.968Z,92468.00
2023-05-01T08:54:05.855Z,92464.00
2023-05-01T08:55:05.748Z,92462.00
2023-05-01T08:56:05.596Z,92464.00
2023-05-01T08:57:05.467Z,92464.00
2023-05-01T08:58:05.338Z,92464.00
2023-05-01T08:59:05.271Z,92460.00
2023-05-01T09:00:05.081Z,92460.00
2023-05-01T09:01:04.972Z,92456.00
2023-05-01T09:02:04.923Z,92460.00
2023-05-01T09:03:04.919Z,92460.00
2023-05-01T09:04:04.797Z,92458.00
2023-05-01T09:05:04.603Z,92456.00
2023-05-01T09:06:04.626Z,92456.00
2023-05-01T09:07:04.494Z,92454.00
2023-05-01T09:08:04.415Z,92456.00
2023-05-01T09:09:04.363Z,92452.00
2023-05-01T09:10:04.318Z,92452.00
2023-05-01T09:11:04.194Z,92452.00
2023-05-01T09:12:04.145Z,92451.00
2023-05-01T09:13:04.065Z,92451.00
2023-05-01T09:14:04.040Z,92449.00
2023-05-01T09:15:03.871Z,92447.00
2023-05-01T09:16:03.819Z,92445.00
2023-05-01T09:17:03.731Z,92441.00
2023-05-01T09:18:04.111Z,92443.00
2023-05-01T09:19:03.601Z,92441.00
2023-05-01T09:20:03.514Z,92441.00
2023-05-01T09:21:03.530Z,92441.00
2023-05-01T09:22:03.407Z,92439.00
2023-05-01T09:23:03.339Z,92439.00
2023-05-01T09:24:03.263Z,92441.00
2023-05-01T09:25:03.201Z,92439.00
2023-05-01T09:26:03.119Z,92437.00
2023-05-01T09:27:03.074Z,92439.00
2023-05-01T09:28:03.007Z,92435.00
2023-05-01T09:29:02.920Z,92433.00
2023-05-01T09:30:02.817Z,92431.00
2023-05-01T09:31:02.740Z,92429.00
2023-05-01T09:32:02.722Z,92427.00
2023-05-01T09:33:02.616Z,92429.00
2023-05-01T09:34:02.651Z,92423.00
2023-05-01T09:35:02.759Z,92425.00
2023-05-01T09:36:02.890Z,92427.00
2023-05-01T09:37:03.180Z,92425.00
2023-05-01T09:38:03.198Z,92427.00
2023-05-01T09:39:03.349Z,92425.00
2023-05-01T09:40:03.549Z,92423.00
2023-05-01T09:41:03.628Z,92423.00
2023-05-01T09:42:04.597Z,92419.00
2023-05-01T09:43:03.708Z,92421.00
2023-05-01T09:44:03.654Z,92417.00
2023-05-01T09:45:03.562Z,92415.00
2023-05-01T09:46:03.598Z,92413.00
2023-05-01T09:47:03.458Z,92413.00
2023-05-01T09:48:03.470Z,92413.00
2023-05-01T09:49:03.290Z,92413.00
2023-05-01T09:50:03.245Z,92413.00
2023-05-01T09:51:03.116Z,92413.00
2023-05-01T09:52:03.006Z,92413.00
2023-05-01T09:53:02.902Z,92415.00
2023-05-01T09:54:02.852Z,92411.00
2023-05-01T09:55:02.712Z,92411.00
2023-05-01T09:56:02.601Z,92411.00
2023-05-01T09:57:02.505Z,92405.00
2023-05-01T09:58:02.404Z,92405.00
2023-05-01T09:59:02.270Z,92405.00
2023-05-01T10:00:02.348Z,92403.00
2023-05-01T10:01:02.550Z,92399.00
2023-05-01T10:02:02.694Z,92399.00
2023-05-01T10:03:02.941Z,92396.00
2023-05-01T10:04:02.989Z,92394.00
2023-05-01T10:05:03.218Z,92396.00
2023-05-01T10:06:03.326Z,92396.00
2023-05-01T10:07:03.502Z,92396.00
2023-05-01T10:08:03.714Z,92394.00
2023-05-01T10:09:03.714Z,92392.00
2023-05-01T10:10:04.100Z,92390.00
2023-05-01T10:11:03.713Z,92392.00
2023-05-01T10:12:03.551Z,92388.00
2023-05-01T10:13:03.401Z,92388.00
2023-05-01T10:14:03.287Z,92384.00
2023-05-01T10:15:10.780Z,92386.00
2023-05-01T10:16:03.968Z,92382.00
2023-05-01T10:17:02.827Z,92386.00
2023-05-01T10:18:02.820Z,92384.00
2023-05-01T10:19:04.316Z,92382.00
2023-05-01T10:20:02.482Z,92382.00
2023-05-01T10:21:02.449Z,92380.00
2023-05-01T10:22:02.593Z,92382.00
2023-05-01T10:23:02.741Z,92382.00
2023-05-01T10:24:02.881Z,92382.00
2023-05-01T10:25:02.947Z,92380.00
2023-05-01T10:26:04.093Z,92384.00
2023-05-01T10:27:03.040Z,92382.00
2023-05-01T10:28:02.935Z,92382.00
2023-05-01T10:29:02.982Z,92380.00
2023-05-01T10:30:02.740Z,92380.00
2023-05-01T10:31:02.666Z,92378.00
2023-05-01T10:32:02.793Z,92378.00
2023-05-01T10:33:02.509Z,92378.00
2023-05-01T10:34:02.275Z,92376.00
2023-05-01T10:35:02.127Z,92378.00
2023-05-01T10:36:02.064Z,92378.00
2023-05-01T10:37:01.839Z,92378.00
2023-05-01T10:38:01.728Z,92374.00
2023-05-01T10:39:01.580Z,92374.00
2023-05-01T10:40:01.394Z,92376.00
2023-05-01T10:41:01.341Z,92376.00
2023-05-01T10:42:01.116Z,92374.00
2023-05-01T10:43:00.963Z,92374.00
2023-05-01T10:44:00.866Z,92376.00
2023-05-01T10:45:01.082Z,92376.00
2023-05-01T10:46:00.975Z,92378.00
2023-05-01T10:47:01.146Z,92378.00
2023-05-01T10:48:01.304Z,92376.00
2023-05-01T10:49:01.339Z,92376.00
2023-05-01T10:50:01.424Z,92374.00
2023-05-01T10:51:01.557Z,92374.00
2023-05-01T10:52:01.688Z,92370.00
2023-05-01T10:53:01.843Z,92370.00
2023-05-01T10:54:01.978Z,92366.00
2023-05-01T10:55:02.406Z,92366.00
2023-05-01T10:56:02.241Z,92364.00
2023-05-01T10:57:02.371Z,92364.00
2023-05-01T10:58:02.503Z,92364.00
2023-05-01T10:59:02.591Z,92362.00
2023-05-01T11:00:02.722Z,92362.00
2023-05-01T11:01:02.907Z,92360.00
2023-05-01T11:02:02.976Z,92356.00
2023-05-01T11:03:03.200Z,92362.00
2023-05-01T11:04:03.313Z,92356.00
2023-05-01T11:05:03.515Z,92356.00
2023-05-01T11:06:03.807Z,92354.00
2023-05-01T11:07:03.788Z,92352.00
2023-05-01T11:08:03.798Z,92349.00
2023-05-01T11:09:03.973Z,92349.00
2023-05-01T11:10:04.079Z,92347.00
2023-05-01T11:11:04.314Z,92347.00
2023-05-01T11:12:04.417Z,92345.00
2023-05-01T11:13:04.533Z,92345.00
2023-05-01T11:14:04.780Z,92347.00
2023-05-01T11:15:04.912Z,92343.00
2023-05-01T11:16:05.104Z,92345.00
2023-05-01T11:17:05.218Z,92343.00
2023-05-01T11:18:05.399Z,92339.00
2023-05-01T11:19:05.515Z,92343.00
2023-05-01T11:20:05.697Z,92341.00
2023-05-01T11:21:05.810Z,92341.00
2023-05-01T11:22:05.978Z,92347.00
2023-05-01T11:23:06.090Z,92347.00
2023-05-01T11:24:06.218Z,92343.00
2023-05-01T11:25:06.356Z,92345.00
2023-05-01T11:26:06.531Z,92345.00
2023-05-01T11:27:06.659Z,92347.00
2023-05-01T11:28:07.018Z,92345.00
2023-05-01T11:29:06.923Z,92343.00
2023-05-01T11:30:07.143Z,92345.00
2023-05-01T11:31:07.304Z,92345.00
2023-05-01T11:32:07.481Z,92345.00
2023-05-01T11:33:10.217Z,92345.00
2023-05-01T11:34:07.531Z,92345.00
2023-05-01T11:35:07.308Z,92341.00
2023-05-01T11:36:07.188Z,92341.00
2023-05-01T11:37:07.076Z,92341.00
2023-05-01T11:38:07.056Z,92341.00
2023-05-01T11:39:06.771Z,92339.00
2023-05-01T11:40:06.661Z,92339.00
2023-05-01T11:41:06.553Z,92343.00
2023-05-01T11:42:06.535Z,92339.00
2023-05-01T11:43:06.294Z,92343.00
2023-05-01T11:44:06.174Z,92343.00
2023-05-01T11:45:06.142Z,92341.00
2023-05-01T11:46:06.311Z,92341.00